sensor_id;sensor_type;location;lat;lon;timestamp;temperature;humidity
8269;DHT22;4174;48.304;16.364;2022-08-19T00:06:02;20.90;99.90
8269;DHT22;4174;48.304;16.364;2022-08-19T00:12:05;20.80;99.90
8269;DHT22;4174;48.304;16.364;2022-08-19T00:18:08;20.70;99.90
8269;DHT22;4174;48.304;16.364;2022-08-19T00:24:12;20.60;99.90
8269;DHT22;4174;48.304;16.364;2022-08-19T00:30:13;20.60;99.90
8269;DHT22;4174;48.304;16.364;2022-08-19T00:36:17;20.40;99.90
8269;DHT22;4174;48.304;16.364;2022-08-19T00:42:21;20.30;99.90
8269;DHT22;4174;48.304;16.364;2022-08-19T00:48:24;20.20;99.90
8269;DHT22;4174;48.304;16.364;2022-08-19T00:54:27;20.20;99.90
8269;DHT22;4174;48.304;16.364;2022-08-19T01:00:29;20.20;99.90
8269;DHT22;4174;48.304;16.364;2022-08-19T01:06:31;20.10;99.90
8269;DHT22;4174;48.304;16.364;2022-08-19T01:12:33;20.10;99.90
8269;DHT22;4174;48.304;16.364;2022-08-19T01:18:41;20.10;99.90
8269;DHT22;4174;48.304;16.364;2022-08-19T01:24:38;20.00;99.90
8269;DHT22;4174;48.304;16.364;2022-08-19T01:30:40;19.90;99.90
8269;DHT22;4174;48.304;16.364;2022-08-19T01:36:44;19.80;99.90
8269;DHT22;4174;48.304;16.364;2022-08-19T01:42:48;19.80;99.90
8269;DHT22;4174;48.304;16.364;2022-08-19T01:48:51;19.70;99.90
8269;DHT22;4174;48.304;16.364;2022-08-19T01:54:53;19.70;99.90
8269;DHT22;4174;48.304;16.364;2022-08-19T02:00:57;19.70;99.90
8269;DHT22;4174;48.304;16.364;2022-08-19T02:06:59;19.60;99.90
8269;DHT22;4174;48.304;16.364;2022-08-19T02:13:01;19.70;99.90
8269;DHT22;4174;48.304;16.364;2022-08-19T02:19:04;19.80;99.90
8269;DHT22;4174;48.304;16.364;2022-08-19T02:25:08;19.90;99.90
8269;DHT22;4174;48.304;16.364;2022-08-19T02:31:12;20.00;99.90
8269;DHT22;4174;48.304;16.364;2022-08-19T02:37:14;20.10;99.90
8269;DHT22;4174;48.304;16.364;2022-08-19T02:43:23;20.70;99.90
8269;DHT22;4174;48.304;16.364;2022-08-19T02:49:25;20.60;99.90
8269;DHT22;4174;48.304;16.364;2022-08-19T02:55:29;21.00;99.90
8269;DHT22;4174;48.304;16.364;2022-08-19T03:01:32;21.10;99.90
8269;DHT22;4174;48.304;16.364;2022-08-19T03:07:35;21.10;99.90
8269;DHT22;4174;48.304;16.364;2022-08-19T03:13:37;21.20;99.90
8269;DHT22;4174;48.304;16.364;2022-08-19T03:19:40;21.30;99.90
8269;DHT22;4174;48.304;16.364;2022-08-19T03:25:45;21.30;99.90
8269;DHT22;4174;48.304;16.364;2022-08-19T03:31:46;21.40;99.90
8269;DHT22;4174;48.304;16.364;2022-08-19T03:37:49;21.40;99.90
8269;DHT22;4174;48.304;16.364;2022-08-19T03:43:52;21.40;99.90
8269;DHT22;4174;48.304;16.364;2022-08-19T03:49:54;21.50;99.90
8269;DHT22;4174;48.304;16.364;2022-08-19T03:55:57;21.50;99.90
8269;DHT22;4174;48.304;16.364;2022-08-19T04:02:03;21.40;99.90
8269;DHT22;4174;48.304;16.364;2022-08-19T04:08:02;21.40;99.90
8269;DHT22;4174;48.304;16.364;2022-08-19T04:14:04;21.50;99.90
8269;DHT22;4174;48.304;16.364;2022-08-19T04:20:07;21.60;99.90
8269;DHT22;4174;48.304;16.364;2022-08-19T04:26:13;21.70;99.90
8269;DHT22;4174;48.304;16.364;2022-08-19T04:32:17;21.80;99.90
8269;DHT22;4174;48.304;16.364;2022-08-19T04:38:21;22.00;99.90
8269;DHT22;4174;48.304;16.364;2022-08-19T04:44:23;22.30;99.90
8269;DHT22;4174;48.304;16.364;2022-08-19T04:50:26;22.60;99.90
8269;DHT22;4174;48.304;16.364;2022-08-19T04:56:29;23.00;99.90
8269;DHT22;4174;48.304;16.364;2022-08-19T05:02:32;23.20;99.90
8269;DHT22;4174;48.304;16.364;2022-08-19T05:08:36;23.30;99.90
8269;DHT22;4174;48.304;16.364;2022-08-19T05:14:37;23.40;99.90
8269;DHT22;4174;48.304;16.364;2022-08-19T05:20:40;23.60;99.90
8269;DHT22;4174;48.304;16.364;2022-08-19T05:26:48;23.80;99.90
8269;DHT22;4174;48.304;16.364;2022-08-19T05:32:50;24.10;99.90
8269;DHT22;4174;48.304;16.364;2022-08-19T05:38:53;24.20;99.90
8269;DHT22;4174;48.304;16.364;2022-08-19T05:44:56;24.00;99.90
8269;DHT22;4174;48.304;16.364;2022-08-19T05:51:03;23.80;99.90
8269;DHT22;4174;48.304;16.364;2022-08-19T05:57:01;23.60;99.90
8269;DHT22;4174;48.304;16.364;2022-08-19T06:03:04;23.60;99.90
8269;DHT22;4174;48.304;16.364;2022-08-19T06:09:07;23.90;99.90
8269;DHT22;4174;48.304;16.364;2022-08-19T06:15:11;23.90;99.90
8269;DHT22;4174;48.304;16.364;2022-08-19T06:21:14;25.50;99.90
8269;DHT22;4174;48.304;16.364;2022-08-19T06:27:18;25.50;99.90
8269;DHT22;4174;48.304;16.364;2022-08-19T06:33:21;25.90;99.90
8269;DHT22;4174;48.304;16.364;2022-08-19T06:39:24;25.70;99.90
8269;DHT22;4174;48.304;16.364;2022-08-19T06:45:26;25.70;99.90
8269;DHT22;4174;48.304;16.364;2022-08-19T06:51:29;25.70;99.90
8269;DHT22;4174;48.304;16.364;2022-08-19T06:57:32;25.70;99.90
8269;DHT22;4174;48.304;16.364;2022-08-19T07:03:35;26.00;99.90
8269;DHT22;4174;48.304;16.364;2022-08-19T07:09:37;26.30;99.90
8269;DHT22;4174;48.304;16.364;2022-08-19T07:15:39;26.40;99.90
8269;DHT22;4174;48.304;16.364;2022-08-19T07:21:42;26.70;99.90
8269;DHT22;4174;48.304;16.364;2022-08-19T07:27:45;27.20;99.90
8269;DHT22;4174;48.304;16.364;2022-08-19T07:33:49;27.90;99.90
8269;DHT22;4174;48.304;16.364;2022-08-19T07:39:51;28.40;99.90
8269;DHT22;4174;48.304;16.364;2022-08-19T07:45:54;28.50;99.90
8269;DHT22;4174;48.304;16.364;2022-08-19T07:51:59;28.20;99.90
8269;DHT22;4174;48.304;16.364;2022-08-19T07:58:01;28.30;99.90
8269;DHT22;4174;48.304;16.364;2022-08-19T08:04:04;29.00;99.90
8269;DHT22;4174;48.304;16.364;2022-08-19T08:10:13;29.90;99.90
8269;DHT22;4174;48.304;16.364;2022-08-19T08:16:18;30.60;99.90
8269;DHT22;4174;48.304;16.364;2022-08-19T08:22:21;31.80;99.90
8269;DHT22;4174;48.304;16.364;2022-08-19T08:28:43;32.60;99.90
8269;DHT22;4174;48.304;16.364;2022-08-19T08:34:46;33.10;98.80
8269;DHT22;4174;48.304;16.364;2022-08-19T08:40:52;33.30;95.00
8269;DHT22;4174;48.304;16.364;2022-08-19T08:46:55;33.80;93.60
8269;DHT22;4174;48.304;16.364;2022-08-19T08:52:56;34.50;90.60
8269;DHT22;4174;48.304;16.364;2022-08-19T08:59:03;34.70;89.60
8269;DHT22;4174;48.304;16.364;2022-08-19T09:05:10;35.50;83.60
8269;DHT22;4174;48.304;16.364;2022-08-19T09:11:15;35.20;82.60
8269;DHT22;4174;48.304;16.364;2022-08-19T09:17:17;34.80;87.70
8269;DHT22;4174;48.304;16.364;2022-08-19T09:23:18;34.20;77.40
8269;DHT22;4174;48.304;16.364;2022-08-19T09:29:21;34.00;80.40
8269;DHT22;4174;48.304;16.364;2022-08-19T09:35:26;35.30;81.60
8269;DHT22;4174;48.304;16.364;2022-08-19T09:41:26;35.50;74.50
8269;DHT22;4174;48.304;16.364;2022-08-19T09:47:28;35.60;76.40
8269;DHT22;4174;48.304;16.364;2022-08-19T09:53:31;35.60;76.20
8269;DHT22;4174;48.304;16.364;2022-08-19T09:59:34;35.70;80.70
8269;DHT22;4174;48.304;16.364;2022-08-19T10:05:36;37.10;73.90
8269;DHT22;4174;48.304;16.364;2022-08-19T10:11:46;38.60;61.90
8269;DHT22;4174;48.304;16.364;2022-08-19T10:17:49;37.10;66.90
8269;DHT22;4174;48.304;16.364;2022-08-19T10:23:53;37.00;66.70
8269;DHT22;4174;48.304;16.364;2022-08-19T10:29:54;36.60;66.50
8269;DHT22;4174;48.304;16.364;2022-08-19T10:35:58;35.50;71.20
8269;DHT22;4174;48.304;16.364;2022-08-19T10:42:03;34.30;76.20
8269;DHT22;4174;48.304;16.364;2022-08-19T10:48:02;32.70;76.00
8269;DHT22;4174;48.304;16.364;2022-08-19T10:54:05;31.70;87.40
8269;DHT22;4174;48.304;16.364;2022-08-19T11:00:09;30.80;92.20
8269;DHT22;4174;48.304;16.364;2022-08-19T11:06:13;30.20;93.40
8269;DHT22;4174;48.304;16.364;2022-08-19T11:12:15;29.90;98.10
8269;DHT22;4174;48.304;16.364;2022-08-19T11:18:18;29.50;97.30
8269;DHT22;4174;48.304;16.364;2022-08-19T11:24:23;28.80;99.90
8269;DHT22;4174;48.304;16.364;2022-08-19T11:30:23;27.90;99.90
8269;DHT22;4174;48.304;16.364;2022-08-19T11:36:27;27.40;99.90
8269;DHT22;4174;48.304;16.364;2022-08-19T11:42:29;27.20;99.90
8269;DHT22;4174;48.304;16.364;2022-08-19T11:48:38;28.00;99.90
8269;DHT22;4174;48.304;16.364;2022-08-19T11:54:41;31.00;99.90
8269;DHT22;4174;48.304;16.364;2022-08-19T12:00:44;31.00;99.90
8269;DHT22;4174;48.304;16.364;2022-08-19T12:06:48;30.50;99.90
8269;DHT22;4174;48.304;16.364;2022-08-19T12:12:51;31.30;98.50
8269;DHT22;4174;48.304;16.364;2022-08-19T12:18:55;32.40;92.40
8269;DHT22;4174;48.304;16.364;2022-08-19T12:24:57;31.60;88.80
8269;DHT22;4174;48.304;16.364;2022-08-19T12:31:00;30.70;90.30
8269;DHT22;4174;48.304;16.364;2022-08-19T12:37:04;29.60;93.50
8269;DHT22;4174;48.304;16.364;2022-08-19T12:43:06;30.70;95.30
8269;DHT22;4174;48.304;16.364;2022-08-19T12:49:08;31.90;92.50
8269;DHT22;4174;48.304;16.364;2022-08-19T12:55:11;31.20;92.50
8269;DHT22;4174;48.304;16.364;2022-08-19T13:01:14;30.10;94.30
8269;DHT22;4174;48.304;16.364;2022-08-19T13:07:17;29.30;94.90
8269;DHT22;4174;48.304;16.364;2022-08-19T13:13:21;29.30;96.40
8269;DHT22;4174;48.304;16.364;2022-08-19T13:19:24;29.30;97.50
8269;DHT22;4174;48.304;16.364;2022-08-19T13:25:27;29.40;96.90
8269;DHT22;4174;48.304;16.364;2022-08-19T13:31:32;29.00;98.10
8269;DHT22;4174;48.304;16.364;2022-08-19T13:37:38;29.10;99.10
8269;DHT22;4174;48.304;16.364;2022-08-19T13:43:42;29.10;97.30
8269;DHT22;4174;48.304;16.364;2022-08-19T13:49:45;28.90;97.30
8269;DHT22;4174;48.304;16.364;2022-08-19T13:55:47;28.60;97.40
8269;DHT22;4174;48.304;16.364;2022-08-19T14:01:50;28.40;96.60
8269;DHT22;4174;48.304;16.364;2022-08-19T14:07:52;28.20;97.10
8269;DHT22;4174;48.304;16.364;2022-08-19T14:13:56;28.10;97.00
8269;DHT22;4174;48.304;16.364;2022-08-19T14:20:00;28.00;97.60
8269;DHT22;4174;48.304;16.364;2022-08-19T14:26:03;28.00;96.90
8269;DHT22;4174;48.304;16.364;2022-08-19T14:32:05;28.30;95.70
8269;DHT22;4174;48.304;16.364;2022-08-19T14:38:14;28.60;96.90
8269;DHT22;4174;48.304;16.364;2022-08-19T14:44:10;28.60;97.50
8269;DHT22;4174;48.304;16.364;2022-08-19T14:50:12;28.30;98.10
8269;DHT22;4174;48.304;16.364;2022-08-19T14:56:16;28.20;97.90
8269;DHT22;4174;48.304;16.364;2022-08-19T15:02:18;28.00;96.20
8269;DHT22;4174;48.304;16.364;2022-08-19T15:08:21;28.00;96.20
8269;DHT22;4174;48.304;16.364;2022-08-19T15:14:23;28.00;97.40
8269;DHT22;4174;48.304;16.364;2022-08-19T15:20:26;28.30;97.60
8269;DHT22;4174;48.304;16.364;2022-08-19T15:26:29;28.30;97.30
8269;DHT22;4174;48.304;16.364;2022-08-19T15:32:34;27.90;98.10
8269;DHT22;4174;48.304;16.364;2022-08-19T15:38:37;27.80;97.70
8269;DHT22;4174;48.304;16.364;2022-08-19T15:44:39;27.80;97.70
8269;DHT22;4174;48.304;16.364;2022-08-19T15:50:42;27.70;98.50
8269;DHT22;4174;48.304;16.364;2022-08-19T15:56:44;27.70;98.30
8269;DHT22;4174;48.304;16.364;2022-08-19T16:02:52;27.80;95.90
8269;DHT22;4174;48.304;16.364;2022-08-19T16:09:02;27.70;94.40
8269;DHT22;4174;48.304;16.364;2022-08-19T16:15:03;27.60;95.20
8269;DHT22;4174;48.304;16.364;2022-08-19T16:21:07;27.80;95.50
8269;DHT22;4174;48.304;16.364;2022-08-19T16:27:11;27.80;94.80
8269;DHT22;4174;48.304;16.364;2022-08-19T16:33:14;27.60;94.60
8269;DHT22;4174;48.304;16.364;2022-08-19T16:39:18;27.50;94.20
8269;DHT22;4174;48.304;16.364;2022-08-19T16:45:21;27.30;95.10
8269;DHT22;4174;48.304;16.364;2022-08-19T16:51:24;27.30;95.00
8269;DHT22;4174;48.304;16.364;2022-08-19T16:57:29;27.30;96.00
8269;DHT22;4174;48.304;16.364;2022-08-19T17:03:32;27.30;96.80
8269;DHT22;4174;48.304;16.364;2022-08-19T17:09:35;27.30;97.20
8269;DHT22;4174;48.304;16.364;2022-08-19T17:15:38;27.20;98.50
8269;DHT22;4174;48.304;16.364;2022-08-19T17:21:41;27.00;98.70
8269;DHT22;4174;48.304;16.364;2022-08-19T17:27:43;26.90;99.50
8269;DHT22;4174;48.304;16.364;2022-08-19T17:33:46;26.80;99.90
8269;DHT22;4174;48.304;16.364;2022-08-19T17:39:49;26.70;99.90
8269;DHT22;4174;48.304;16.364;2022-08-19T17:45:52;26.50;99.90
8269;DHT22;4174;48.304;16.364;2022-08-19T17:51:55;26.30;99.90
8269;DHT22;4174;48.304;16.364;2022-08-19T17:57:58;26.10;99.90
8269;DHT22;4174;48.304;16.364;2022-08-19T18:04:01;25.90;99.90
8269;DHT22;4174;48.304;16.364;2022-08-19T18:10:03;25.80;99.90
8269;DHT22;4174;48.304;16.364;2022-08-19T18:16:07;25.60;99.90
8269;DHT22;4174;48.304;16.364;2022-08-19T18:22:19;25.50;99.90
8269;DHT22;4174;48.304;16.364;2022-08-19T18:28:23;25.30;99.90
8269;DHT22;4174;48.304;16.364;2022-08-19T18:34:26;25.30;99.90
8269;DHT22;4174;48.304;16.364;2022-08-19T18:40:29;25.20;99.90
8269;DHT22;4174;48.304;16.364;2022-08-19T18:46:38;25.00;99.90
8269;DHT22;4174;48.304;16.364;2022-08-19T18:52:46;24.60;99.90
8269;DHT22;4174;48.304;16.364;2022-08-19T18:58:49;24.50;99.90
8269;DHT22;4174;48.304;16.364;2022-08-19T19:04:51;24.40;99.90
8269;DHT22;4174;48.304;16.364;2022-08-19T19:10:54;24.40;99.90
8269;DHT22;4174;48.304;16.364;2022-08-19T19:16:57;24.50;99.90
8269;DHT22;4174;48.304;16.364;2022-08-19T19:22:59;24.50;99.90
8269;DHT22;4174;48.304;16.364;2022-08-19T19:29:02;24.50;99.90
8269;DHT22;4174;48.304;16.364;2022-08-19T19:35:07;24.40;99.90
8269;DHT22;4174;48.304;16.364;2022-08-19T19:41:10;24.40;99.90
8269;DHT22;4174;48.304;16.364;2022-08-19T19:47:11;24.40;99.90
8269;DHT22;4174;48.304;16.364;2022-08-19T19:53:14;24.40;99.90
8269;DHT22;4174;48.304;16.364;2022-08-19T19:59:20;24.40;99.90
8269;DHT22;4174;48.304;16.364;2022-08-19T20:05:22;24.30;99.90
8269;DHT22;4174;48.304;16.364;2022-08-19T20:11:29;24.50;99.90
8269;DHT22;4174;48.304;16.364;2022-08-19T20:17:29;24.00;99.90
8269;DHT22;4174;48.304;16.364;2022-08-19T20:23:32;24.00;99.90
8269;DHT22;4174;48.304;16.364;2022-08-19T20:29:35;23.60;99.90
8269;DHT22;4174;48.304;16.364;2022-08-19T20:35:37;23.20;99.90
8269;DHT22;4174;48.304;16.364;2022-08-19T20:41:40;22.90;99.90
8269;DHT22;4174;48.304;16.364;2022-08-19T20:47:43;22.70;99.90
8269;DHT22;4174;48.304;16.364;2022-08-19T20:53:46;22.40;99.90
8269;DHT22;4174;48.304;16.364;2022-08-19T20:59:49;22.20;99.90
8269;DHT22;4174;48.304;16.364;2022-08-19T21:05:52;22.00;99.90
8269;DHT22;4174;48.304;16.364;2022-08-19T21:11:53;21.90;99.90
8269;DHT22;4174;48.304;16.364;2022-08-19T21:18:00;21.90;99.90
8269;DHT22;4174;48.304;16.364;2022-08-19T21:24:04;21.80;99.90
8269;DHT22;4174;48.304;16.364;2022-08-19T21:30:07;21.70;99.90
8269;DHT22;4174;48.304;16.364;2022-08-19T21:36:12;21.70;99.90
8269;DHT22;4174;48.304;16.364;2022-08-19T21:42:15;21.60;99.90
8269;DHT22;4174;48.304;16.364;2022-08-19T21:48:18;21.40;99.90
8269;DHT22;4174;48.304;16.364;2022-08-19T21:54:21;21.20;99.90
8269;DHT22;4174;48.304;16.364;2022-08-19T22:00:24;21.00;99.90
8269;DHT22;4174;48.304;16.364;2022-08-19T22:06:27;20.70;99.90
8269;DHT22;4174;48.304;16.364;2022-08-19T22:12:31;20.70;99.90
8269;DHT22;4174;48.304;16.364;2022-08-19T22:18:32;20.50;99.90
8269;DHT22;4174;48.304;16.364;2022-08-19T22:24:35;20.40;99.90
8269;DHT22;4174;48.304;16.364;2022-08-19T22:30:39;20.20;99.90
8269;DHT22;4174;48.304;16.364;2022-08-19T22:36:40;20.10;99.90
8269;DHT22;4174;48.304;16.364;2022-08-19T22:42:43;19.90;99.90
8269;DHT22;4174;48.304;16.364;2022-08-19T22:48:46;19.90;99.90
8269;DHT22;4174;48.304;16.364;2022-08-19T22:54:49;19.90;99.90
8269;DHT22;4174;48.304;16.364;2022-08-19T23:00:50;19.80;99.90
8269;DHT22;4174;48.304;16.364;2022-08-19T23:06:53;19.80;99.90
8269;DHT22;4174;48.304;16.364;2022-08-19T23:12:56;19.80;99.90
8269;DHT22;4174;48.304;16.364;2022-08-19T23:18:57;19.90;99.90
8269;DHT22;4174;48.304;16.364;2022-08-19T23:25:02;19.90;99.90
8269;DHT22;4174;48.304;16.364;2022-08-19T23:31:03;19.90;99.90
8269;DHT22;4174;48.304;16.364;2022-08-19T23:37:05;19.90;99.90
8269;DHT22;4174;48.304;16.364;2022-08-19T23:43:09;19.80;99.90
8269;DHT22;4174;48.304;16.364;2022-08-19T23:49:12;19.90;99.90
8269;DHT22;4174;48.304;16.364;2022-08-19T23:55:17;19.90;99.90
